createdAt,value
2022-12-20T00:03:06.335Z,5.73
2022-12-20T00:06:34.635Z,5.90
2022-12-20T00:09:59.702Z,5.80
2022-12-20T00:13:24.061Z,6.10
2022-12-20T00:16:48.071Z,5.33
2022-12-20T00:20:13.894Z,5.63
2022-12-20T00:23:40.393Z,4.70
2022-12-20T00:27:04.181Z,5.10
2022-12-20T00:30:30.484Z,4.80
2022-12-20T00:33:56.554Z,5.20
2022-12-20T00:37:20.273Z,4.90
2022-12-20T00:40:48.016Z,5.23
2022-12-20T00:44:12.213Z,4.87
2022-12-20T00:47:36.181Z,5.50
2022-12-20T00:51:00.679Z,5.07
2022-12-20T00:54:25.091Z,5.30
2022-12-20T00:57:55.836Z,5.23
2022-12-20T01:01:23.247Z,4.83
2022-12-20T01:04:46.987Z,5.00
2022-12-20T01:08:11.286Z,6.00
2022-12-20T01:11:37.246Z,5.37
2022-12-20T01:15:02.604Z,5.00
2022-12-20T01:18:27.142Z,4.67
2022-12-20T01:21:51.165Z,4.67
2022-12-20T01:25:17.605Z,4.40
2022-12-20T01:28:43.466Z,4.37
2022-12-20T01:32:08.642Z,4.40
2022-12-20T01:35:32.428Z,4.50
2022-12-20T01:38:58.585Z,4.60
2022-12-20T01:42:23.248Z,4.80
2022-12-20T01:45:48.096Z,5.13
2022-12-20T01:49:19.148Z,4.67
2022-12-20T01:52:46.300Z,4.83
2022-12-20T01:56:11.295Z,4.00
2022-12-20T01:59:38.804Z,5.33
2022-12-20T02:03:07.957Z,4.50
2022-12-20T02:06:33.675Z,4.70
2022-12-20T02:10:00.169Z,3.97
2022-12-20T02:13:34.638Z,4.60
2022-12-20T02:17:09.294Z,3.83
2022-12-20T02:21:15.590Z,4.90
2022-12-20T02:25:20.914Z,3.90
2022-12-20T02:29:03.889Z,4.63
2022-12-20T02:32:35.639Z,3.83
2022-12-20T02:36:00.267Z,4.00
2022-12-20T02:39:26.031Z,4.20
2022-12-20T02:42:55.995Z,4.57
2022-12-20T02:46:21.043Z,5.17
2022-12-20T02:49:51.530Z,4.40
2022-12-20T02:53:17.439Z,3.83
2022-12-20T02:56:46.798Z,4.30
2022-12-20T03:00:17.094Z,4.20
2022-12-20T03:03:41.951Z,3.70
2022-12-20T03:07:10.569Z,4.27
2022-12-20T03:10:34.306Z,3.50
2022-12-20T03:13:58.389Z,4.43
2022-12-20T03:17:26.455Z,3.60
2022-12-20T03:20:50.361Z,3.33
2022-12-20T03:24:16.138Z,4.00
2022-12-20T03:27:40.497Z,4.20
2022-12-20T03:31:07.470Z,3.83
2022-12-20T03:34:42.033Z,3.93
2022-12-20T03:38:07.591Z,4.13
2022-12-20T03:41:40.254Z,4.10
2022-12-20T03:45:06.085Z,4.50
2022-12-20T03:48:30.739Z,3.67
2022-12-20T03:51:55.418Z,3.87
2022-12-20T03:55:20.367Z,3.33
2022-12-20T03:58:46.160Z,4.13
2022-12-20T04:02:12.617Z,4.33
2022-12-20T04:05:36.469Z,4.10
2022-12-20T04:09:00.361Z,3.90
2022-12-20T04:12:30.167Z,3.93
2022-12-20T04:16:00.365Z,4.33
2022-12-20T04:19:28.457Z,4.37
2022-12-20T04:22:55.616Z,3.50
2022-12-20T04:26:21.034Z,4.80
2022-12-20T04:29:45.439Z,4.20
2022-12-20T04:33:14.787Z,4.40
2022-12-20T04:36:39.085Z,4.03
2022-12-20T04:40:11.024Z,4.53
2022-12-20T04:43:42.376Z,4.20
2022-12-20T04:47:06.454Z,4.90
2022-12-20T04:50:31.568Z,4.30
2022-12-20T04:53:57.233Z,4.37
2022-12-20T04:57:36.107Z,4.27
2022-12-20T05:01:03.638Z,4.20
2022-12-20T05:04:37.669Z,3.73
2022-12-20T05:08:03.751Z,3.97
2022-12-20T05:11:28.513Z,4.60
2022-12-20T05:14:52.841Z,4.57
2022-12-20T05:18:19.644Z,4.50
2022-12-20T05:22:09.608Z,4.70
2022-12-20T05:25:59.811Z,4.67
2022-12-20T05:29:24.548Z,4.27
2022-12-20T05:32:48.786Z,5.57
2022-12-20T05:36:13.538Z,4.80
2022-12-20T05:39:37.476Z,4.63
2022-12-20T05:43:08.926Z,4.13
2022-12-20T05:46:38.756Z,4.77
2022-12-20T05:50:12.299Z,3.80
2022-12-20T05:54:02.753Z,3.77
2022-12-20T05:57:38.496Z,4.97
2022-12-20T06:01:05.182Z,6.40
2022-12-20T06:04:34.649Z,4.00
2022-12-20T06:08:04.766Z,5.20
2022-12-20T06:11:30.374Z,5.87
2022-12-20T06:15:02.667Z,4.97
2022-12-20T06:18:31.173Z,5.83
2022-12-20T06:21:58.322Z,5.07
2022-12-20T06:25:33.563Z,5.47
2022-12-20T06:29:02.553Z,5.07
2022-12-20T06:32:35.595Z,5.70
2022-12-20T06:36:02.020Z,5.93
2022-12-20T06:39:25.806Z,5.00
2022-12-20T06:42:59.101Z,6.00
2022-12-20T06:46:23.106Z,5.53
2022-12-20T06:49:47.365Z,5.40
2022-12-20T06:53:19.238Z,5.70
2022-12-20T06:56:43.223Z,6.13
2022-12-20T07:00:13.547Z,6.37
2022-12-20T07:03:37.238Z,5.73
2022-12-20T07:07:00.838Z,5.70
2022-12-20T07:10:25.830Z,5.60
2022-12-20T07:13:50.158Z,5.40
2022-12-20T07:17:13.765Z,7.40
2022-12-20T07:20:37.650Z,6.83
2022-12-20T07:24:01.447Z,6.10
2022-12-20T07:27:26.555Z,6.60
2022-12-20T07:30:50.448Z,7.13
2022-12-20T07:34:14.459Z,6.47
2022-12-20T07:37:38.439Z,7.50
2022-12-20T07:41:02.400Z,7.77
2022-12-20T07:44:27.833Z,7.20
2022-12-20T07:47:51.503Z,7.27
2022-12-20T07:51:22.448Z,6.33
2022-12-20T07:54:50.520Z,7.17
2022-12-20T07:58:15.933Z,7.30
2022-12-20T08:01:43.731Z,6.50
2022-12-20T08:05:13.049Z,6.10
2022-12-20T08:08:39.597Z,7.20
2022-12-20T08:12:03.300Z,6.80
2022-12-20T08:15:27.818Z,5.97
2022-12-20T08:18:53.025Z,6.10
2022-12-20T08:22:16.681Z,7.70
2022-12-20T08:25:42.028Z,6.30
2022-12-20T08:29:06.367Z,6.37
2022-12-20T08:32:30.374Z,6.70
2022-12-20T08:36:00.442Z,7.20
2022-12-20T08:39:24.116Z,7.00
2022-12-20T08:42:47.766Z,7.10
2022-12-20T08:46:13.132Z,6.83
2022-12-20T08:49:39.087Z,5.80
2022-12-20T08:53:07.615Z,6.20
2022-12-20T08:56:31.358Z,6.03
2022-12-20T08:59:55.122Z,5.37
2022-12-20T09:03:19.115Z,6.57
2022-12-20T09:06:42.716Z,6.87
2022-12-20T09:10:09.391Z,6.90
2022-12-20T09:13:36.615Z,6.40
2022-12-20T09:17:06.493Z,6.87
2022-12-20T09:20:30.792Z,6.27
2022-12-20T09:23:55.881Z,6.03
2022-12-20T09:27:21.124Z,6.67
2022-12-20T09:30:44.870Z,5.73
2022-12-20T09:34:10.192Z,6.80
2022-12-20T09:37:34.445Z,5.50
2022-12-20T09:41:02.537Z,5.17
2022-12-20T09:44:31.862Z,5.90
2022-12-20T09:47:55.728Z,5.80
2022-12-20T09:51:42.349Z,5.83
2022-12-20T09:55:19.688Z,5.07
2022-12-20T09:59:01.163Z,5.73
2022-12-20T10:02:56.637Z,5.77
2022-12-20T10:06:20.200Z,6.17
2022-12-20T10:10:04.035Z,5.30
2022-12-20T10:13:42.540Z,5.70
2022-12-20T10:17:12.300Z,6.00
2022-12-20T10:20:47.927Z,5.10
2022-12-20T10:24:17.406Z,6.00
2022-12-20T10:27:43.408Z,6.60
2022-12-20T10:31:09.708Z,5.97
2022-12-20T10:34:38.256Z,6.20
2022-12-20T10:38:09.164Z,6.53
2022-12-20T10:41:49.463Z,6.33
2022-12-20T10:45:35.847Z,6.40
2022-12-20T10:49:24.321Z,7.87
2022-12-20T10:53:06.129Z,5.40
2022-12-20T10:56:31.941Z,9.83
2022-12-20T10:59:57.534Z,7.10
2022-12-20T11:03:24.723Z,7.40
2022-12-20T11:06:49.281Z,6.77
2022-12-20T11:10:23.304Z,6.80
2022-12-20T11:13:48.057Z,7.00
2022-12-20T11:17:27.951Z,7.33
2022-12-20T11:21:04.219Z,6.73
2022-12-20T11:24:36.100Z,7.20
2022-12-20T11:28:19.394Z,7.73
2022-12-20T11:31:55.912Z,7.30
2022-12-20T11:35:23.503Z,7.10
2022-12-20T11:38:51.866Z,8.60
2022-12-20T11:42:26.431Z,7.40
2022-12-20T11:46:05.409Z,6.83
2022-12-20T11:49:51.721Z,6.90
2022-12-20T11:53:25.666Z,6.40
2022-12-20T11:56:53.513Z,7.07
2022-12-20T12:00:26.361Z,7.53
2022-12-20T12:04:02.216Z,6.63
2022-12-20T12:07:30.468Z,7.00
2022-12-20T12:10:59.368Z,6.30
2022-12-20T12:14:36.432Z,6.27
2022-12-20T12:18:03.984Z,5.50
2022-12-20T12:21:34.466Z,5.70
2022-12-20T12:25:03.408Z,5.77
2022-12-20T12:28:27.250Z,5.90
2022-12-20T12:31:56.147Z,5.73
2022-12-20T12:35:39.964Z,6.50
2022-12-20T12:39:51.581Z,5.90
2022-12-20T12:43:44.597Z,5.83
2022-12-20T12:47:16.410Z,6.10
2022-12-20T12:50:45.954Z,5.83
2022-12-20T12:54:24.083Z,6.53
2022-12-20T12:57:58.279Z,5.53
2022-12-20T13:01:50.026Z,5.30
2022-12-20T13:05:36.557Z,6.10
2022-12-20T13:09:22.520Z,5.27
2022-12-20T13:13:13.980Z,5.00
2022-12-20T13:17:10.745Z,5.93
2022-12-20T13:20:25.822Z,5.30
2022-12-20T13:24:09.470Z,6.20
2022-12-20T13:27:36.667Z,6.00
2022-12-20T13:31:40.433Z,6.00
2022-12-20T13:35:30.236Z,6.90
2022-12-20T13:38:56.489Z,5.63
2022-12-20T13:42:34.768Z,5.67
2022-12-20T13:46:08.106Z,5.50
2022-12-20T13:49:37.715Z,5.80
2022-12-20T13:53:03.649Z,5.13
2022-12-20T13:56:39.056Z,5.47
2022-12-20T14:00:08.283Z,5.67
2022-12-20T14:03:32.749Z,5.03
2022-12-20T14:06:59.526Z,4.70
2022-12-20T14:10:27.567Z,4.50
2022-12-20T14:13:55.573Z,4.70
2022-12-20T14:17:25.056Z,5.80
2022-12-20T14:20:52.030Z,5.50
2022-12-20T14:24:18.545Z,6.40
2022-12-20T14:27:43.713Z,5.27
2022-12-20T14:31:25.007Z,4.80
2022-12-20T14:34:49.497Z,3.73
2022-12-20T14:38:23.374Z,5.23
2022-12-20T14:41:50.208Z,6.60
2022-12-20T14:45:22.090Z,4.47
2022-12-20T14:48:46.168Z,4.57
2022-12-20T14:52:16.331Z,5.17
2022-12-20T14:55:46.489Z,4.93
2022-12-20T14:59:16.477Z,4.90
2022-12-20T15:02:47.071Z,4.10
2022-12-20T15:06:35.607Z,4.97
2022-12-20T15:09:59.477Z,4.30
2022-12-20T15:13:26.337Z,4.10
2022-12-20T15:16:50.672Z,3.77
2022-12-20T15:20:17.018Z,3.70
2022-12-20T15:23:45.862Z,4.63
2022-12-20T15:27:13.663Z,4.43
2022-12-20T15:30:38.123Z,4.70
2022-12-20T15:34:02.481Z,4.10
2022-12-20T15:37:27.509Z,5.40
2022-12-20T15:40:54.808Z,4.40
2022-12-20T15:44:21.996Z,5.70
2022-12-20T15:47:45.739Z,6.17
2022-12-20T15:51:18.605Z,3.83
2022-12-20T15:54:43.772Z,4.80
2022-12-20T15:58:07.586Z,4.97
2022-12-20T16:01:40.839Z,5.13
2022-12-20T16:05:06.655Z,5.43
2022-12-20T16:08:30.812Z,6.07
2022-12-20T16:11:57.118Z,5.83
2022-12-20T16:15:22.962Z,4.97
2022-12-20T16:18:47.143Z,4.97
2022-12-20T16:22:21.958Z,5.20
2022-12-20T16:25:45.684Z,6.10
2022-12-20T16:29:10.812Z,5.70
2022-12-20T16:32:34.369Z,5.30
2022-12-20T16:35:57.963Z,5.30
2022-12-20T16:39:22.410Z,5.97
2022-12-20T16:42:47.194Z,6.00
2022-12-20T16:46:13.680Z,7.07
2022-12-20T16:49:37.730Z,4.77
2022-12-20T16:53:01.284Z,5.73
2022-12-20T16:56:25.367Z,5.53
2022-12-20T16:59:48.896Z,5.30
2022-12-20T17:03:15.670Z,5.20
2022-12-20T17:06:40.032Z,5.37
2022-12-20T17:10:04.001Z,5.23
2022-12-20T17:13:27.682Z,5.30
2022-12-20T17:16:51.428Z,5.17
2022-12-20T17:20:18.026Z,5.20
2022-12-20T17:23:41.598Z,8.80
2022-12-20T17:27:07.868Z,5.27
2022-12-20T17:30:31.583Z,16.60
2022-12-20T17:33:55.810Z,16.77
2022-12-20T17:37:21.489Z,6.73
2022-12-20T17:40:45.605Z,8.00
2022-12-20T17:44:16.176Z,4.17
2022-12-20T17:47:39.828Z,5.50
2022-12-20T17:51:03.867Z,4.40
2022-12-20T17:54:36.594Z,5.07
2022-12-20T17:58:02.977Z,5.37
2022-12-20T18:01:29.226Z,5.40
2022-12-20T18:04:53.877Z,4.50
2022-12-20T18:08:17.467Z,5.10
2022-12-20T18:11:42.620Z,4.30
2022-12-20T18:15:08.750Z,4.80
2022-12-20T18:18:36.673Z,5.50
2022-12-20T18:22:00.980Z,5.47
2022-12-20T18:25:24.558Z,6.20
2022-12-20T18:28:51.425Z,6.93
2022-12-20T18:32:15.060Z,6.50
2022-12-20T18:35:38.746Z,6.17
2022-12-20T18:39:04.304Z,5.73
2022-12-20T18:42:27.891Z,5.40
2022-12-20T18:45:52.889Z,5.27
2022-12-20T18:49:16.531Z,6.20
2022-12-20T18:52:42.413Z,5.80
2022-12-20T18:56:09.974Z,5.67
2022-12-20T18:59:33.744Z,5.43
2022-12-20T19:03:02.561Z,5.60
2022-12-20T19:06:30.077Z,5.50
2022-12-20T19:09:54.245Z,5.73
2022-12-20T19:13:18.616Z,5.67
2022-12-20T19:16:42.484Z,5.33
2022-12-20T19:20:09.170Z,6.60
2022-12-20T19:23:32.853Z,6.10
2022-12-20T19:26:56.469Z,6.70
2022-12-20T19:30:20.209Z,5.87
2022-12-20T19:33:45.320Z,5.60
2022-12-20T19:37:10.521Z,6.53
2022-12-20T19:40:34.277Z,7.07
2022-12-20T19:43:58.081Z,6.20
2022-12-20T19:47:21.760Z,5.90
2022-12-20T19:50:45.721Z,6.90
2022-12-20T19:54:11.560Z,7.37
2022-12-20T19:57:35.296Z,7.30
2022-12-20T20:00:59.663Z,6.53
2022-12-20T20:04:23.567Z,6.07
2022-12-20T20:07:47.104Z,7.40
2022-12-20T20:11:13.003Z,6.77
2022-12-20T20:14:36.695Z,7.50
2022-12-20T20:18:01.208Z,6.70
2022-12-20T20:21:25.877Z,7.00
2022-12-20T20:24:49.604Z,5.87
2022-12-20T20:28:14.840Z,6.23
2022-12-20T20:31:38.795Z,7.53
2022-12-20T20:35:02.533Z,7.13
2022-12-20T20:38:26.719Z,6.37
2022-12-20T20:41:50.821Z,7.13
2022-12-20T20:45:16.760Z,6.90
2022-12-20T20:48:41.310Z,8.27
2022-12-20T20:52:05.159Z,6.20
2022-12-20T20:55:28.806Z,6.17
2022-12-20T20:58:53.536Z,6.57
2022-12-20T21:02:24.045Z,7.63
2022-12-20T21:09:33.729Z,7.50
2022-12-20T21:12:57.545Z,6.80
2022-12-20T21:16:22.497Z,6.60
2022-12-20T21:19:47.906Z,7.77
2022-12-20T21:23:12.418Z,7.33
2022-12-20T21:26:37.834Z,6.90
2022-12-20T21:30:01.587Z,7.30
2022-12-20T21:33:25.644Z,7.10
2022-12-20T21:36:50.894Z,7.20
2022-12-20T21:40:14.841Z,8.03
2022-12-20T21:43:38.980Z,7.80
2022-12-20T21:47:02.648Z,7.93
2022-12-20T21:50:35.826Z,8.07
2022-12-20T21:54:04.695Z,9.43
2022-12-20T21:57:28.586Z,9.20
2022-12-20T22:00:55.576Z,8.83
2022-12-20T22:04:23.076Z,8.17
2022-12-20T22:07:47.765Z,9.40
2022-12-20T22:11:16.098Z,8.70
2022-12-20T22:14:48.242Z,9.73
2022-12-20T22:18:13.106Z,10.23
2022-12-20T22:21:37.976Z,10.07
2022-12-20T22:25:01.804Z,10.03
2022-12-20T22:28:27.004Z,8.80
2022-12-20T22:31:52.526Z,9.37
2022-12-20T22:35:22.464Z,9.67
2022-12-20T22:38:48.686Z,9.30
2022-12-20T22:42:12.619Z,9.40
2022-12-20T22:45:40.639Z,8.13
2022-12-20T22:49:05.048Z,8.60
2022-12-20T22:52:28.737Z,9.43
2022-12-20T22:55:52.452Z,8.83
2022-12-20T22:59:16.976Z,7.97
2022-12-20T23:02:42.846Z,8.60
2022-12-20T23:06:09.222Z,9.20
2022-12-20T23:09:33.841Z,10.53
2022-12-20T23:13:20.920Z,11.47
2022-12-20T23:16:45.010Z,9.70
2022-12-20T23:20:28.914Z,9.73
2022-12-20T23:23:56.149Z,8.83
2022-12-20T23:27:22.381Z,10.33
2022-12-20T23:30:46.684Z,10.43
2022-12-20T23:34:10.799Z,9.90
2022-12-20T23:37:36.088Z,11.73
2022-12-20T23:40:59.783Z,9.97
2022-12-20T23:44:23.865Z,9.50
2022-12-20T23:47:47.694Z,9.67
2022-12-20T23:51:12.376Z,9.93
2022-12-20T23:54:38.079Z,10.77
2022-12-20T23:58:01.767Z,9.40
